Time;durP1;ratioP1;P1;durP2;ratioP2;P2;SDS_P1;SDS_P2;PMS_P1;PMS_P2;Temp;Humidity;BMP_temperature;BMP_pressure;BME280_temperature;BME280_humidity;BME280_pressure;Samples;Min_cycle;Max_cycle;Signal;HPM_P1;HPM_P2
2021/06/13 00:00:12;;;;;;;6.88;5.18;;;;;;;19.41;57.50;100522.28;2209649;40;20121;-86
2021/06/13 00:01:43;;;;;;;7.40;5.03;;;;;;;19.40;57.20;100517.06;2208375;40;20093;-87
2021/06/13 00:03:15;;;;;;;8.32;4.78;;;;;;;19.39;57.21;100518.91;2209120;40;20045;-85
2021/06/13 00:04:45;;;;;;;7.88;5.30;;;;;;;19.40;57.34;100515.19;2210957;40;20106;-87
2021/06/13 00:06:18;;;;;;;10.27;5.97;;;;;;;19.40;57.17;100519.78;2209043;40;20035;-86
2021/06/13 00:07:50;;;;;;;10.30;5.45;;;;;;;19.31;57.48;100519.03;2210184;40;20533;-85
2021/06/13 00:09:21;;;;;;;7.68;5.85;;;;;;;19.22;57.98;100521.03;2209003;40;20023;-85
2021/06/13 00:10:52;;;;;;;8.57;5.85;;;;;;;19.09;58.65;100524.41;2210629;40;20027;-85
2021/06/13 00:12:24;;;;;;;11.18;6.35;;;;;;;18.97;59.12;100525.94;2209277;40;20042;-86
2021/06/13 00:13:55;;;;;;;8.52;6.10;;;;;;;18.83;59.75;100533.00;2210659;40;20045;-86
2021/06/13 00:15:26;;;;;;;8.38;6.18;;;;;;;18.76;59.90;100530.19;2209337;40;20034;-85
2021/06/13 00:16:58;;;;;;;8.88;6.35;;;;;;;18.69;59.86;100530.09;2210570;40;20034;-86
2021/06/13 00:18:29;;;;;;;7.32;5.70;;;;;;;18.61;60.42;100529.38;2209251;40;20038;-85
2021/06/13 00:20:00;;;;;;;8.38;5.80;;;;;;;18.54;60.26;100532.81;2210701;40;20077;-86
2021/06/13 00:21:33;;;;;;;8.07;6.05;;;;;;;18.52;60.41;100534.03;2209278;40;20058;-86
2021/06/13 00:23:04;;;;;;;8.30;5.60;;;;;;;18.53;60.57;100543.81;2210571;40;20054;-85
2021/06/13 00:24:36;;;;;;;9.15;6.68;;;;;;;18.53;60.45;100535.69;2209179;40;20101;-85
2021/06/13 00:26:08;;;;;;;8.55;6.00;;;;;;;18.49;60.63;100546.06;2210503;40;20058;-86
2021/06/13 00:27:40;;;;;;;10.68;7.20;;;;;;;18.43;61.08;100540.53;2209287;40;20038;-86
2021/06/13 00:29:11;;;;;;;9.25;7.07;;;;;;;18.36;61.30;100551.25;2210331;40;20037;-84
2021/06/13 00:30:42;;;;;;;9.23;6.22;;;;;;;18.29;61.20;100545.72;2209257;40;20034;-84
2021/06/13 00:32:14;;;;;;;10.07;7.13;;;;;;;18.26;61.42;100545.25;2210407;40;20057;-86
2021/06/13 00:33:45;;;;;;;9.38;6.30;;;;;;;18.21;61.65;100538.56;2209557;40;20046;-86
2021/06/13 00:35:19;;;;;;;11.48;6.43;;;;;;;18.20;61.84;100536.88;2210551;40;20058;-84
2021/06/13 00:36:51;;;;;;;9.88;7.30;;;;;;;18.15;61.73;100539.25;2209172;40;20034;-84
2021/06/13 00:38:23;;;;;;;10.50;7.35;;;;;;;18.14;61.71;100540.28;2210013;40;20030;-86
2021/06/13 00:39:54;;;;;;;9.45;7.25;;;;;;;18.10;61.76;100536.28;2209138;40;20038;-85
2021/06/13 00:41:26;;;;;;;9.23;6.80;;;;;;;18.08;61.99;100544.59;2210428;40;20034;-85
2021/06/13 00:42:57;;;;;;;10.07;5.82;;;;;;;18.09;61.72;100553.53;2209290;40;20038;-86
2021/06/13 00:44:29;;;;;;;11.02;7.82;;;;;;;18.04;61.79;100553.25;2210525;40;20038;-85
2021/06/13 00:46:00;;;;;;;9.65;6.80;;;;;;;18.04;62.11;100550.53;2209096;40;20041;-85
2021/06/13 00:47:31;;;;;;;11.35;7.03;;;;;;;17.99;61.95;100550.22;2210472;40;20042;-85
2021/06/13 00:49:02;;;;;;;8.77;6.80;;;;;;;18.01;61.66;100546.31;2209186;40;20041;-85
2021/06/13 00:50:39;;;;;;;11.88;7.38;;;;;;;18.03;61.74;100535.34;2210540;40;20270;-85
2021/06/13 00:52:11;;;;;;;11.35;6.85;;;;;;;18.05;61.51;100546.78;2209213;40;20057;-84
2021/06/13 00:53:44;;;;;;;9.73;7.07;;;;;;;17.99;62.06;100545.69;2210557;40;20093;-85
2021/06/13 00:55:16;;;;;;;9.15;6.93;;;;;;;17.97;61.89;100549.56;2209130;40;20042;-85
2021/06/13 00:56:47;;;;;;;14.88;8.20;;;;;;;17.98;61.99;100552.09;2210496;40;20031;-86
2021/06/13 00:58:19;;;;;;;9.82;7.13;;;;;;;18.00;62.06;100551.91;2209033;40;20057;-86
2021/06/13 00:59:49;;;;;;;9.38;6.93;;;;;;;17.97;62.08;100547.72;2210751;40;20039;-86
2021/06/13 01:01:21;;;;;;;9.95;6.85;;;;;;;17.91;61.83;100549.25;2209521;40;20061;-85
2021/06/13 01:02:52;;;;;;;9.32;7.10;;;;;;;17.89;61.86;100551.28;2210541;40;20051;-84
2021/06/13 01:04:23;;;;;;;9.90;6.93;;;;;;;17.89;61.98;100556.69;2209085;40;20150;-85
2021/06/13 01:05:54;;;;;;;14.18;7.30;;;;;;;17.91;61.98;100553.78;2210272;40;20050;-85
2021/06/13 01:07:35;;;;;;;10.63;6.78;;;;;;;17.88;62.05;100555.00;2209040;40;20035;-85
2021/06/13 01:09:09;;;;;;;11.90;6.72;;;;;;;17.84;62.10;100556.41;2210447;40;20030;-85
2021/06/13 01:10:51;;;;;;;10.10;7.18;;;;;;;17.82;62.09;100554.88;2209413;40;20041;-84
2021/06/13 01:12:26;;;;;;;9.95;6.10;;;;;;;17.84;61.99;100559.09;2208975;40;20034;-85
2021/06/13 01:14:04;;;;;;;9.48;6.72;;;;;;;17.82;61.95;100561.16;2210821;40;20101;-84
2021/06/13 01:15:41;;;;;;;8.88;6.50;;;;;;;17.79;62.15;100553.38;2208855;40;20045;-85
2021/06/13 01:17:17;;;;;;;9.00;6.45;;;;;;;17.76;61.85;100557.28;2210322;40;20074;-85
2021/06/13 01:18:50;;;;;;;9.70;6.97;;;;;;;17.72;61.92;100555.97;2208829;40;20034;-85
2021/06/13 01:20:26;;;;;;;9.43;7.15;;;;;;;17.72;62.10;100553.25;2210371;40;20039;-86
2021/06/13 01:22:09;;;;;;;9.02;6.80;;;;;;;17.70;62.07;100557.16;2209006;40;20048;-85
2021/06/13 01:24:08;;;;;;;9.55;7.03;;;;;;;17.69;61.99;100558.19;2210257;40;20035;-84
2021/06/13 01:26:12;;;;;;;10.50;6.43;;;;;;;17.69;61.88;100560.88;2208928;40;20045;-84
2021/06/13 01:28:07;;;;;;;8.00;6.07;;;;;;;17.64;62.20;100547.06;2208788;40;20053;-85
2021/06/13 01:29:42;;;;;;;8.45;5.53;;;;;;;17.66;62.42;100550.44;2210249;40;20037;-84
2021/06/13 01:31:16;;;;;;;10.98;6.15;;;;;;;17.72;61.92;100557.84;2215051;40;20045;-84
2021/06/13 01:32:47;;;;;;;9.07;6.57;;;;;;;17.74;62.26;100555.78;2215675;40;20030;-82
2021/06/13 01:34:23;;;;;;;8.68;6.38;;;;;;;17.72;62.25;100553.25;2211155;40;20053;-81
2021/06/13 01:35:56;;;;;;;9.93;6.55;;;;;;;17.72;61.87;100558.66;2212054;40;20053;-80
2021/06/13 01:37:33;;;;;;;10.85;5.97;;;;;;;17.76;61.79;100567.25;2210105;40;20050;-81
2021/06/13 01:39:06;;;;;;;8.88;5.75;;;;;;;17.74;61.98;100561.22;2206304;40;20045;-79
2021/06/13 01:40:40;;;;;;;9.40;6.15;;;;;;;17.73;61.52;100556.81;2204890;40;20054;-81
2021/06/13 01:42:14;;;;;;;12.50;6.28;;;;;;;17.72;61.59;100564.06;2205056;40;20442;-80
2021/06/13 01:43:45;;;;;;;7.47;4.65;;;;;;;17.74;61.50;100564.72;2206653;40;20031;-80
2021/06/13 01:45:22;;;;;;;7.70;5.53;;;;;;;17.76;61.50;100556.44;2205554;40;20039;-81
2021/06/13 01:46:55;;;;;;;9.73;6.55;;;;;;;17.75;61.25;100563.72;2206701;40;20039;-80
2021/06/13 01:48:26;;;;;;;10.95;6.18;;;;;;;17.68;61.39;100556.50;2205302;40;20054;-81
2021/06/13 01:49:58;;;;;;;12.88;6.50;;;;;;;17.62;61.31;100561.59;2207035;40;20148;-80
2021/06/13 01:51:31;;;;;;;8.73;5.40;;;;;;;17.57;61.25;100566.69;2205750;40;20347;-81
2021/06/13 01:53:09;;;;;;;7.95;4.97;;;;;;;17.55;61.22;100559.78;2206439;40;20050;-80
2021/06/13 01:54:42;;;;;;;9.88;5.13;;;;;;;17.55;61.13;100554.38;2202845;40;20055;-79
2021/06/13 01:56:14;;;;;;;11.63;5.47;;;;;;;17.53;61.04;100559.97;2204390;40;20034;-78
2021/06/13 01:57:46;;;;;;;10.45;5.20;;;;;;;17.48;60.99;100565.06;2202853;40;20058;-79
2021/06/13 01:59:18;;;;;;;6.68;4.50;;;;;;;17.45;61.21;100563.56;2204693;40;20038;-78
2021/06/13 02:00:53;;;;;;;7.80;4.95;;;;;;;17.47;61.41;100560.69;2202568;40;20083;-81
2021/06/13 02:02:27;;;;;;;7.85;5.80;;;;;;;17.49;61.37;100563.22;2204216;40;20420;-80
2021/06/13 02:04:01;;;;;;;8.27;4.95;;;;;;;17.46;61.39;100562.53;2203138;40;20046;-80
2021/06/13 02:05:34;;;;;;;6.85;4.68;;;;;;;17.46;61.49;100564.41;2204239;40;20042;-79
2021/06/13 02:07:07;;;;;;;8.75;4.97;;;;;;;17.46;61.46;100565.25;2203008;40;20022;-80
2021/06/13 02:08:40;;;;;;;5.90;4.45;;;;;;;17.44;61.58;100574.56;2205138;40;20109;-80
2021/06/13 02:10:14;;;;;;;8.15;4.72;;;;;;;17.45;61.62;100570.84;2203584;40;20054;-80
2021/06/13 02:11:46;;;;;;;8.80;4.60;;;;;;;17.45;61.57;100570.84;2204890;40;20042;-79
2021/06/13 02:13:18;;;;;;;6.30;4.47;;;;;;;17.46;61.33;100573.34;2205812;40;20470;-79
2021/06/13 02:14:50;;;;;;;8.00;4.68;;;;;;;17.51;61.24;100572.81;2212627;40;20038;-79
2021/06/13 02:16:23;;;;;;;8.57;5.75;;;;;;;17.50;61.32;100573.84;2209549;40;20057;-79
2021/06/13 02:17:55;;;;;;;7.70;5.10;;;;;;;17.42;61.58;100572.03;2210792;40;20038;-79
2021/06/13 02:19:29;;;;;;;9.90;6.78;;;;;;;17.36;62.26;100571.91;2209161;40;20062;-79
2021/06/13 02:21:04;;;;;;;10.48;6.63;;;;;;;17.34;62.25;100573.94;2210129;40;20053;-79
2021/06/13 02:22:36;;;;;;;9.73;5.25;;;;;;;17.35;62.23;100565.63;2203465;40;20051;-79
2021/06/13 02:24:09;;;;;;;7.38;4.68;;;;;;;17.34;62.41;100573.94;2210663;40;20100;-79
2021/06/13 02:25:40;;;;;;;9.07;4.85;;;;;;;17.31;62.39;100575.97;2203528;40;20102;-80
2021/06/13 02:27:14;;;;;;;7.07;4.90;;;;;;;17.30;62.30;100576.97;2202684;40;20035;-79
2021/06/13 02:28:50;;;;;;;7.57;4.80;;;;;;;17.26;62.44;100578.34;2204851;40;20047;-80
2021/06/13 02:30:24;;;;;;;8.25;4.82;;;;;;;17.27;62.68;100580.06;2204003;40;20042;-81
2021/06/13 02:31:59;;;;;;;9.18;5.05;;;;;;;17.28;62.57;100586.28;2204947;40;20046;-80
2021/06/13 02:33:32;;;;;;;8.90;5.80;;;;;;;17.27;62.84;100580.06;2209518;40;20449;-79
2021/06/13 02:35:05;;;;;;;8.52;5.38;;;;;;;17.28;63.11;100586.28;2210704;40;20034;-79
2021/06/13 02:36:38;;;;;;;9.25;7.05;;;;;;;17.28;63.36;100592.53;2209387;40;20054;-79
2021/06/13 02:38:10;;;;;;;10.40;6.68;;;;;;;17.18;63.99;100583.81;2211047;40;20042;-79
2021/06/13 02:39:41;;;;;;;11.30;7.55;;;;;;;17.06;64.54;100583.31;2209796;40;20089;-79
2021/06/13 02:41:13;;;;;;;9.65;7.03;;;;;;;16.99;64.77;100594.00;2210564;40;20042;-79
2021/06/13 02:42:44;;;;;;;10.20;6.97;;;;;;;16.88;65.15;100591.63;2210287;40;20061;-81
2021/06/13 02:44:15;;;;;;;11.15;7.63;;;;;;;16.86;65.53;100587.44;2211395;40;20126;-79
2021/06/13 02:45:48;;;;;;;10.05;7.63;;;;;;;16.81;65.56;100596.03;2208859;40;20057;-79
2021/06/13 02:47:21;;;;;;;11.80;6.70;;;;;;;16.80;65.94;100591.66;2210242;40;20038;-79
2021/06/13 02:48:52;;;;;;;9.32;6.28;;;;;;;16.83;66.00;100592.16;2209189;40;20042;-79
2021/06/13 02:50:26;;;;;;;7.78;5.93;;;;;;;16.82;65.67;100590.47;2210375;40;20280;-79
2021/06/13 02:52:02;;;;;;;9.05;6.85;;;;;;;16.82;65.74;100598.56;2208973;40;20095;-79
2021/06/13 02:53:42;;;;;;;9.73;7.22;;;;;;;16.77;65.98;100592.81;2203956;40;20633;-79
2021/06/13 02:55:19;;;;;;;9.67;6.20;;;;;;;16.76;66.16;100598.41;2208851;40;20056;-80
2021/06/13 02:56:55;;;;;;;8.30;5.65;;;;;;;16.73;66.20;100599.59;2210407;40;20039;-80
2021/06/13 02:58:33;;;;;;;8.10;6.10;;;;;;;16.75;66.05;100602.09;2209034;40;20033;-80
2021/06/13 03:00:07;;;;;;;8.32;5.57;;;;;;;16.72;66.19;100602.47;2204696;40;20055;-79
2021/06/13 03:01:44;;;;;;;7.07;5.30;;;;;;;16.72;66.02;100605.19;2205809;40;20046;-80
2021/06/13 03:03:20;;;;;;;11.20;6.97;;;;;;;16.75;65.84;100602.09;2203200;40;20034;-80
2021/06/13 03:04:52;;;;;;;9.55;6.43;;;;;;;16.69;66.03;100601.81;2204011;40;20078;-80
2021/06/13 03:06:25;;;;;;;9.57;6.40;;;;;;;16.65;66.25;100603.13;2202445;40;20034;-82
2021/06/13 03:07:57;;;;;;;14.20;8.18;;;;;;;16.66;66.37;100604.84;2205522;40;20038;-82
2021/06/13 03:09:30;;;;;;;10.18;6.47;;;;;;;16.60;66.28;100608.22;2204843;40;20038;-82
2021/06/13 03:11:03;;;;;;;11.02;7.25;;;;;;;16.50;66.66;100612.97;2205875;40;20041;-82
2021/06/13 03:12:35;;;;;;;10.25;7.95;;;;;;;16.37;67.00;100606.22;2204338;40;20057;-82
2021/06/13 03:14:08;;;;;;;12.82;7.82;;;;;;;16.30;67.43;100615.13;2205623;40;20031;-81
2021/06/13 03:15:39;;;;;;;9.40;7.00;;;;;;;16.22;67.49;100616.81;2204260;40;20445;-82
2021/06/13 03:17:11;;;;;;;8.85;6.72;;;;;;;16.18;67.49;100620.88;2205794;40;20053;-82
2021/06/13 03:18:46;;;;;;;12.10;7.65;;;;;;;16.16;67.48;100622.91;2203809;40;20518;-82
2021/06/13 03:20:18;;;;;;;17.77;7.85;;;;;;;16.14;67.71;100621.38;2205504;40;20026;-80
2021/06/13 03:21:50;;;;;;;12.60;6.95;;;;;;;16.12;67.55;100624.22;2207797;40;20116;-80
2021/06/13 03:23:22;;;;;;;10.45;7.32;;;;;;;16.12;67.52;100623.41;2211957;40;20038;-82
2021/06/13 03:24:56;;;;;;;12.70;7.00;;;;;;;16.11;67.45;100622.53;2211332;40;20066;-81
2021/06/13 03:26:29;;;;;;;9.48;7.00;;;;;;;16.05;67.53;100626.78;2211706;40;20037;-80
2021/06/13 03:28:01;;;;;;;12.77;6.90;;;;;;;16.03;67.73;100625.22;2206691;40;20053;-80
2021/06/13 03:29:34;;;;;;;10.68;6.70;;;;;;;15.99;67.71;100634.69;2210437;40;20034;-81
2021/06/13 03:31:06;;;;;;;12.15;7.40;;;;;;;15.94;67.71;100631.63;2207803;40;20453;-79
2021/06/13 03:32:38;;;;;;;9.43;6.78;;;;;;;15.86;68.21;100632.47;2209226;40;20026;-79
2021/06/13 03:34:11;;;;;;;12.05;7.38;;;;;;;15.80;68.33;100635.78;2208137;40;20085;-80
2021/06/13 03:35:45;;;;;;;9.38;6.55;;;;;;;15.75;68.70;100634.44;2208880;40;20112;-79
2021/06/13 03:37:18;;;;;;;7.90;6.07;;;;;;;15.77;68.82;100636.13;2201857;40;20053;-78
2021/06/13 03:39:00;;;;;;;11.80;7.32;;;;;;;15.74;69.04;100635.44;2203271;40;20038;-80
2021/06/13 03:40:43;;;;;;;11.07;7.53;;;;;;;15.73;69.15;100641.84;2203299;40;20034;-79
2021/06/13 03:42:21;;;;;;;10.20;7.68;;;;;;;15.71;69.27;100643.84;2196174;40;20039;-80
2021/06/13 03:43:55;;;;;;;11.40;7.82;;;;;;;15.73;69.09;100640.97;2197405;40;20431;-83
2021/06/13 03:45:28;;;;;;;12.07;6.97;;;;;;;15.73;69.24;100636.44;2195940;40;20074;-80
2021/06/13 03:47:01;;;;;;;11.73;7.70;;;;;;;15.73;69.25;100636.44;2198061;40;20039;-79
2021/06/13 03:48:34;;;;;;;11.88;7.13;;;;;;;15.71;69.08;100634.94;2202725;40;20053;-81
2021/06/13 03:50:10;;;;;;;13.55;8.52;;;;;;;15.71;69.25;100643.84;2204500;40;20030;-81
2021/06/13 03:51:43;;;;;;;11.98;6.95;;;;;;;15.74;69.21;100648.06;2197643;40;20065;-80
2021/06/13 03:53:15;;;;;;;11.50;7.20;;;;;;;15.77;69.04;100645.03;2199055;40;20035;-80
2021/06/13 03:54:46;;;;;;;13.90;8.10;;;;;;;15.70;69.10;100644.84;2196949;40;20058;-80
2021/06/13 03:56:20;;;;;;;9.82;7.30;;;;;;;15.69;69.10;100640.47;2198002;40;20359;-81
2021/06/13 03:58:16;;;;;;;9.23;7.78;;;;;;;15.67;69.12;100650.59;2202132;40;20043;-80
2021/06/13 03:59:59;;;;;;;10.27;6.82;;;;;;;15.60;69.31;100646.84;2203263;40;20027;-81
2021/06/13 04:01:33;;;;;;;9.18;7.38;;;;;;;15.56;69.55;100648.19;2197113;40;20050;-80
2021/06/13 04:03:06;;;;;;;14.43;7.75;;;;;;;15.59;69.72;100645.13;2198313;40;20042;-80
2021/06/13 04:04:41;;;;;;;11.48;7.55;;;;;;;15.60;69.88;100653.09;2197552;40;20046;-79
2021/06/13 04:06:14;;;;;;;9.90;7.32;;;;;;;15.61;69.79;100653.91;2196714;40;20401;-80
2021/06/13 04:07:46;;;;;;;10.00;7.20;;;;;;;15.65;69.54;100649.03;2198507;40;20043;-80
2021/06/13 04:09:19;;;;;;;13.98;8.00;;;;;;;15.64;69.52;100659.00;2197112;40;20027;-79
2021/06/13 04:10:53;;;;;;;12.82;7.97;;;;;;;15.58;69.61;100655.09;2198157;40;20429;-80
2021/06/13 04:12:25;;;;;;;10.80;7.50;;;;;;;15.55;69.66;100655.41;2196396;40;20039;-80
2021/06/13 04:13:58;;;;;;;9.55;7.70;;;;;;;15.52;69.97;100665.66;2197955;40;20380;-80
2021/06/13 04:15:31;;;;;;;9.60;7.68;;;;;;;15.50;70.46;100656.91;2171153;40;20034;-79
2021/06/13 04:17:02;;;;;;;10.07;7.15;;;;;;;15.48;70.46;100658.94;2208262;40;20037;-80
2021/06/13 04:18:35;;;;;;;10.00;7.57;;;;;;;15.49;70.63;100664.16;2203626;40;20046;-79
2021/06/13 04:20:07;;;;;;;12.35;8.50;;;;;;;15.50;70.56;100656.91;2204866;40;20976;-80
2021/06/13 04:21:41;;;;;;;10.85;7.60;;;;;;;15.48;70.56;100669.72;2202428;40;20050;-80
2021/06/13 04:23:15;;;;;;;11.23;7.30;;;;;;;15.48;70.40;100680.47;2204116;40;20046;-80
2021/06/13 04:24:48;;;;;;;12.13;8.15;;;;;;;15.46;70.10;100677.09;2202435;40;20050;-80
2021/06/13 04:26:22;;;;;;;11.55;7.15;;;;;;;15.42;69.92;100677.41;2204073;40;20039;-80
2021/06/13 04:27:55;;;;;;;9.02;7.18;;;;;;;15.43;70.04;100680.97;2202469;40;20729;-79
2021/06/13 04:29:26;;;;;;;10.10;6.95;;;;;;;15.46;70.03;100687.88;2198338;40;20042;-80
2021/06/13 04:31:11;;;;;;;11.20;7.20;;;;;;;15.53;69.40;100683.53;2196382;40;20046;-80
2021/06/13 04:32:43;;;;;;;8.60;6.32;;;;;;;15.55;69.48;100681.53;2201326;40;20454;-80
2021/06/13 04:34:15;;;;;;;11.68;7.63;;;;;;;15.59;69.26;100682.88;2203025;40;20053;-80
2021/06/13 04:35:47;;;;;;;8.63;6.45;;;;;;;15.63;69.45;100686.09;2204694;40;20497;-79
2021/06/13 04:37:20;;;;;;;8.77;6.05;;;;;;;15.67;69.17;100688.31;2215822;40;20042;-80
2021/06/13 04:38:51;;;;;;;10.02;6.40;;;;;;;15.74;69.01;100691.19;2212272;40;20425;-80
2021/06/13 04:40:23;;;;;;;8.27;5.38;;;;;;;15.84;68.73;100685.69;2208733;40;20046;-80
2021/06/13 04:41:55;;;;;;;8.48;5.70;;;;;;;15.93;68.16;100694.63;2210470;40;20042;-79
2021/06/13 04:43:26;;;;;;;9.73;6.05;;;;;;;16.00;68.06;100687.59;2209398;40;20052;-79
2021/06/13 04:45:00;;;;;;;9.85;6.38;;;;;;;16.09;67.55;100693.84;2210030;40;20034;-80
2021/06/13 04:46:32;;;;;;;11.43;5.70;;;;;;;16.12;67.45;100690.81;2209782;40;20053;-81
2021/06/13 04:48:06;;;;;;;7.55;5.05;;;;;;;16.18;67.09;100703.63;2210795;40;20042;-79
2021/06/13 04:49:39;;;;;;;8.05;4.53;;;;;;;16.22;66.61;100689.66;2214037;40;20373;-81
2021/06/13 04:51:12;;;;;;;6.40;4.25;;;;;;;16.33;66.10;100691.22;2215149;40;20030;-81
2021/06/13 04:52:46;;;;;;;8.23;4.38;;;;;;;16.41;65.74;100697.63;2211017;40;20052;-79
2021/06/13 04:54:26;;;;;;;6.25;4.38;;;;;;;16.43;65.45;100701.00;2209778;40;20046;-80
2021/06/13 04:56:01;;;;;;;9.00;5.35;;;;;;;16.48;65.20;100693.22;2210430;40;20034;-79
2021/06/13 04:57:46;;;;;;;8.32;4.40;;;;;;;16.56;64.67;100695.09;2211659;40;20041;-81
2021/06/13 04:59:18;;;;;;;9.48;5.22;;;;;;;16.59;64.63;100695.59;2212877;40;20034;-81
2021/06/13 05:00:49;;;;;;;7.95;5.00;;;;;;;16.58;64.49;100693.09;2213474;40;20462;-83
2021/06/13 05:02:23;;;;;;;12.45;5.60;;;;;;;16.61;64.44;100703.53;2213608;40;20045;-82
2021/06/13 05:03:56;;;;;;;7.38;5.22;;;;;;;16.65;64.42;100699.47;2212719;40;20046;-82
2021/06/13 05:05:28;;;;;;;8.15;4.78;;;;;;;16.70;64.21;100699.81;2215193;40;20474;-82
2021/06/13 05:07:03;;;;;;;8.70;5.05;;;;;;;16.75;64.31;100704.69;2213854;40;20042;-80
2021/06/13 05:08:40;;;;;;;7.90;5.03;;;;;;;16.83;63.83;100702.00;2214098;40;20074;-82
2021/06/13 05:10:15;;;;;;;5.80;3.90;;;;;;;16.90;63.51;100696.75;2212731;40;20579;-81
2021/06/13 05:11:46;;;;;;;6.47;3.83;;;;;;;16.92;63.14;100697.44;2213807;40;20045;-82
2021/06/13 05:13:19;;;;;;;7.43;3.72;;;;;;;16.93;62.58;100697.28;2212411;40;20075;-80
2021/06/13 05:14:52;;;;;;;6.40;4.10;;;;;;;17.00;61.99;100698.28;2213712;40;20042;-82
2021/06/13 05:16:23;;;;;;;7.40;3.60;;;;;;;17.05;61.42;100703.16;2211424;40;20315;-80
2021/06/13 05:17:55;;;;;;;7.22;3.40;;;;;;;17.05;60.76;100705.03;2211154;40;20038;-80
2021/06/13 05:19:28;;;;;;;6.30;3.40;;;;;;;17.00;60.42;100705.56;2209895;40;20049;-79
2021/06/13 05:21:00;;;;;;;5.45;3.22;;;;;;;16.98;60.14;100705.75;2213665;40;20040;-82
2021/06/13 05:22:32;;;;;;;8.00;3.60;;;;;;;17.03;60.09;100710.63;2212248;40;20053;-82
2021/06/13 05:24:07;;;;;;;8.18;3.60;;;;;;;17.03;60.12;100705.22;2217794;40;20045;-81
2021/06/13 05:25:41;;;;;;;8.60;3.67;;;;;;;17.06;60.02;100712.13;2216620;40;20049;-80
2021/06/13 05:27:19;;;;;;;7.22;3.80;;;;;;;17.10;59.56;100706.22;2213375;40;20063;-80
2021/06/13 05:28:58;;;;;;;7.65;3.30;;;;;;;17.14;59.52;100712.13;2214024;40;20038;-80
2021/06/13 05:30:34;;;;;;;8.80;3.55;;;;;;;17.15;59.14;100711.94;2214538;40;21689;-81
2021/06/13 05:32:10;;;;;;;6.63;3.58;;;;;;;17.16;59.20;100704.69;2219791;40;20372;-79
2021/06/13 05:33:47;;;;;;;6.40;2.60;;;;;;;17.19;59.03;100712.47;2216512;40;20134;-82
2021/06/13 05:35:19;;;;;;;6.53;3.38;;;;;;;17.28;58.90;100710.56;2220281;40;20303;-81
2021/06/13 05:36:54;;;;;;;6.45;2.90;;;;;;;17.35;58.24;100716.13;2215409;40;20058;-80
2021/06/13 05:38:28;;;;;;;5.30;2.72;;;;;;;17.38;58.17;100726.59;2211395;40;20050;-81
2021/06/13 05:40:08;;;;;;;8.07;3.10;;;;;;;17.43;57.92;100719.63;2211869;40;20053;-80
2021/06/13 05:41:45;;;;;;;7.03;2.92;;;;;;;17.44;58.06;100723.19;2208704;40;20079;-81
2021/06/13 05:43:20;;;;;;;5.90;3.42;;;;;;;17.45;57.79;100733.00;2209927;40;20407;-80
2021/06/13 05:44:53;;;;;;;6.25;3.25;;;;;;;17.43;57.90;100735.03;2220569;40;20041;-80
2021/06/13 05:46:28;;;;;;;5.78;3.15;;;;;;;17.42;57.86;100736.03;2214824;40;20134;-80
2021/06/13 05:48:00;;;;;;;7.68;2.90;;;;;;;17.46;57.91;100742.78;2214216;40;20054;-79
2021/06/13 05:49:32;;;;;;;7.00;2.80;;;;;;;17.53;57.46;100734.81;2211488;40;20040;-81
2021/06/13 05:51:05;;;;;;;5.55;2.50;;;;;;;17.61;57.74;100742.91;2208366;40;20034;-81
2021/06/13 05:52:38;;;;;;;6.72;3.17;;;;;;;17.67;57.46;100741.34;2210598;40;20418;-81
2021/06/13 05:54:10;;;;;;;11.32;3.95;;;;;;;17.62;57.15;100742.72;2218808;40;20034;-80
2021/06/13 05:55:43;;;;;;;6.10;3.38;;;;;;;17.59;57.33;100739.53;2218841;40;20057;-82
2021/06/13 05:57:15;;;;;;;12.98;4.40;;;;;;;17.62;57.35;100758.09;2213757;40;20040;-80
2021/06/13 05:58:48;;;;;;;7.68;3.15;;;;;;;17.63;57.38;100751.66;2213238;40;20128;-80
2021/06/13 06:00:25;;;;;;;6.68;3.28;;;;;;;17.70;57.41;100754.53;2217152;40;20030;-79
2021/06/13 06:01:57;;;;;;;9.43;3.25;;;;;;;17.79;57.19;100761.59;2218338;40;20461;-80
2021/06/13 06:03:29;;;;;;;7.28;3.83;;;;;;;17.76;57.13;100762.78;2211847;40;20030;-79
2021/06/13 06:05:01;;;;;;;6.63;3.75;;;;;;;17.68;57.45;100759.25;2213237;40;20053;-80
2021/06/13 06:06:33;;;;;;;9.45;3.40;;;;;;;17.71;57.13;100758.91;2215506;40;20057;-81
2021/06/13 06:08:05;;;;;;;6.93;3.70;;;;;;;17.72;57.20;100764.16;2218909;40;20242;-81
2021/06/13 06:09:38;;;;;;;7.47;3.22;;;;;;;17.75;57.23;100761.09;2205083;40;20087;-79
2021/06/13 06:11:11;;;;;;;7.22;3.03;;;;;;;17.68;56.53;100756.56;2207882;40;20038;-80
2021/06/13 06:12:43;;;;;;;10.57;3.25;;;;;;;17.58;57.03;100762.19;2210788;40;20118;-80
2021/06/13 06:14:16;;;;;;;8.32;3.20;;;;;;;17.54;56.88;100761.69;2213024;40;20045;-82
2021/06/13 06:15:50;;;;;;;6.10;2.80;;;;;;;17.63;56.73;100757.06;2209612;40;20039;-80
2021/06/13 06:17:21;;;;;;;7.70;3.25;;;;;;;17.73;56.81;100756.91;2214437;40;20042;-80
2021/06/13 06:19:03;;;;;;;6.38;2.88;;;;;;;17.77;56.49;100763.63;2212395;40;20461;-82
2021/06/13 06:20:45;;;;;;;6.15;2.53;;;;;;;17.78;56.27;100770.72;2213879;40;20534;-80
2021/06/13 06:22:16;;;;;;;7.18;3.40;;;;;;;17.71;56.41;100764.31;2218566;40;20029;-84
2021/06/13 06:23:48;;;;;;;8.02;3.25;;;;;;;17.66;56.48;100764.84;2221003;40;20037;-80
2021/06/13 06:25:22;;;;;;;8.23;3.67;;;;;;;17.51;57.01;100762.03;2214539;40;23532;-80
2021/06/13 06:26:54;;;;;;;9.95;3.45;;;;;;;17.46;57.41;100764.41;2217808;40;20033;-80
2021/06/13 06:28:31;;;;;;;7.63;3.38;;;;;;;17.47;57.57;100755.28;2215149;40;20053;-79
2021/06/13 06:30:10;;;;;;;10.90;3.20;;;;;;;17.50;57.84;100763.03;2215089;40;20037;-83
2021/06/13 06:31:47;;;;;;;8.20;3.15;;;;;;;17.58;57.29;100757.59;2215548;40;20050;-81
2021/06/13 06:33:37;;;;;;;10.63;3.53;;;;;;;17.71;56.88;100764.31;2208659;40;20468;-80
2021/06/13 06:35:20;;;;;;;5.80;2.88;;;;;;;17.70;57.07;100768.03;2211132;40;20037;-82
2021/06/13 06:36:59;;;;;;;6.10;3.20;;;;;;;17.75;57.31;100771.91;2191197;40;20043;-84
2021/06/13 06:38:36;;;;;;;6.00;2.72;;;;;;;17.79;56.97;100767.00;2195508;40;20063;-80
2021/06/13 06:40:09;;;;;;;9.30;3.55;;;;;;;17.82;56.83;100780.19;2210927;40;20590;-81
2021/06/13 06:41:49;;;;;;;7.43;3.08;;;;;;;17.93;56.87;100773.53;2206579;40;20101;-81
2021/06/13 06:43:32;;;;;;;6.25;3.72;;;;;;;18.06;56.43;100773.00;2216161;40;20028;-79
2021/06/13 06:45:11;;;;;;;8.40;4.32;;;;;;;18.15;55.91;100780.06;2220421;40;20247;-84
2021/06/13 06:47:01;;;;;;;9.38;3.92;;;;;;;18.22;55.41;100782.91;2218478;40;20053;-84
2021/06/13 06:48:43;;;;;;;7.68;3.08;;;;;;;18.16;54.88;100778.22;2217757;40;20083;-80
2021/06/13 06:50:22;;;;;;;6.65;2.65;;;;;;;18.18;54.13;100795.13;2219623;40;20076;-80
2021/06/13 06:51:58;;;;;;;7.88;3.28;;;;;;;18.20;53.91;100787.63;2216184;40;20111;-80
2021/06/13 06:53:35;;;;;;;7.30;2.85;;;;;;;18.13;53.62;100801.06;2213242;40;20025;-80
2021/06/13 06:55:15;;;;;;;7.50;2.88;;;;;;;18.15;53.13;100799.00;2211042;40;20053;-84
2021/06/13 06:56:54;;;;;;;6.57;2.67;;;;;;;18.25;52.88;100787.97;2220080;40;20081;-85
2021/06/13 06:58:36;;;;;;;6.32;2.53;;;;;;;18.35;52.54;100799.41;2217206;40;20064;-85
2021/06/13 07:00:20;;;;;;;5.65;2.63;;;;;;;18.44;52.35;100802.91;2218945;40;20049;-85
2021/06/13 07:01:58;;;;;;;7.10;2.80;;;;;;;18.49;51.35;100799.66;2221022;40;20086;-82
2021/06/13 07:03:40;;;;;;;9.63;2.65;;;;;;;18.45;51.45;100804.59;2215310;40;20277;-83
2021/06/13 07:05:26;;;;;;;5.90;2.03;;;;;;;18.44;51.24;100807.50;2218836;40;20038;-81
2021/06/13 07:07:07;;;;;;;5.45;2.25;;;;;;;18.53;51.28;100801.84;2211670;40;20053;-86
2021/06/13 07:08:44;;;;;;;6.38;2.35;;;;;;;18.73;50.64;100795.94;2215558;40;20083;-85
2021/06/13 07:10:25;;;;;;;7.88;2.50;;;;;;;18.85;50.48;100802.63;2213909;40;20037;-86
2021/06/13 07:12:07;;;;;;;6.10;1.85;;;;;;;19.07;50.33;100799.28;2215091;40;20042;-85
2021/06/13 07:13:50;;;;;;;6.40;2.28;;;;;;;19.21;49.77;100792.22;2216032;40;20069;-86
2021/06/13 07:15:32;;;;;;;5.63;2.47;;;;;;;19.41;49.64;100798.78;2219365;40;20647;-84
2021/06/13 07:17:16;;;;;;;8.77;2.75;;;;;;;19.46;49.17;100796.34;2214922;40;20037;-83